VK4RM-13 Weather Reports


Display with metric or nautical units.
time (UTC)temp
F
wind
direction
speed
MPH
gust
MPH
rain 1hr
in
rain 24hr
in
rain mn
in
humidity
%
barometer
mb
20220704003809 54 146 0.0 0.0 0.06 1.16 0.03 92 1015.0
20220704003309 54 123 0.0 0.0 0.06 1.15 0.02 92 1014.9
20220704002809 54 134 0.0 0.0 0.07 1.15 0.02 92 1014.9
20220704002309 54 121 0.0 0.0 0.08 1.15 0.02 92 1014.9
20220704001809 54 146 0.0 0.0 0.08 1.15 0.02 92 1014.9
20220704001309 54 155 0.0 0.0 0.07 1.14 0.01 92 1014.8
20220704000809 54 44 0.0 0.0 0.07 1.14 0.01 92 1014.8
20220704000309 54 78 0.0 0.0 0.06 1.13 0.00 92 1014.9
20220703235809 54 130 0.0 0.0 0.07 1.14 1.14 92 1014.8
20220703235309 54 162 0.0 0.0 0.06 1.13 1.13 92 1015.4
20220703234809 54 50 0.0 0.0 0.06 1.12 1.12 92 1015.4
20220703234309 54 90 0.0 0.0 0.06 1.12 1.12 92 1015.1
20220703233809 54 92 0.0 0.0 0.05 1.11 1.11 92 1014.8
20220703233309 54 82 0.0 0.0 0.05 1.10 1.10 91 1014.7
20220703232809 54 246 0.0 0.0 0.04 1.09 1.09 92 1015.2
20220703232309 54 89 0.0 0.0 0.03 1.08 1.08 92 1015.3
20220703231809 54 144 0.0 0.0 0.03 1.08 1.08 91 1015.1
20220703231309 54 90 0.0 0.0 0.03 1.08 1.08 91 1014.9
20220703230809 54 148 0.0 0.0 0.03 1.08 1.08 91 1014.9
20220703230309 54 111 0.0 0.0 0.03 1.08 1.08 91 1014.9
20220703225809 54 149 0.0 0.0 0.03 1.07 1.07 91 1015.0
20220703225309 54 179 0.0 0.0 0.03 1.07 1.07 91 1015.2
20220703224809 54 150 0.0 0.0 0.02 1.06 1.06 91 1014.9
20220703224309 54 157 0.0 0.0 0.02 1.06 1.06 91 1015.0
20220703223809 54 115 0.0 0.0 0.02 1.06 1.06 91 1014.8
20220703223309 54 173 0.0 0.0 0.01 1.05 1.05 91 1014.6
20220703222809 54 173 0.0 0.0 0.01 1.05 1.05 91 1014.6
20220703222309 54 212 0.0 0.0 0.01 1.05 1.05 91 1014.6
20220703221809 54 147 0.0 0.0 0.02 1.05 1.05 91 1014.7
20220703221309 53 146 0.0 0.0 0.03 1.05 1.05 91 1014.6
20220703220809 53 170 0.0 0.0 0.03 1.05 1.05 91 1014.5
20220703220310 53 159 0.0 0.0 0.04 1.05 1.05 91 1014.5
20220703215809 53 159 0.0 0.0 0.04 1.04 1.04 91 1014.7
20220703215310 53 188 0.0 0.0 0.06 1.04 1.04 91 1014.7
20220703214810 53 120 0.0 0.0 0.07 1.04 1.04 91 1014.5
20220703214309 53 77 0.0 0.0 0.08 1.04 1.04 91 1014.7
20220703213810 53 99 0.0 0.0 0.08 1.04 1.04 92 1014.7
20220703213310 53 161 0.0 0.0 0.09 1.04 1.04 92 1014.7
20220703212810 53 226 0.0 0.0 0.09 1.04 1.04 92 1014.5
20220703212310 53 205 0.0 0.0 0.09 1.04 1.04 92 1014.5
20220703211810 53 277 0.0 0.0 0.08 1.03 1.03 92 1014.2
20220703211310 53 254 0.0 0.0 0.07 1.02 1.02 92 1014.1
20220703210810 53 228 0.0 0.0 0.07 1.02 1.02 92 1014.1
20220703210310 53 216 0.0 0.0 0.06 1.01 1.01 91 1014.2
20220703205810 53 261 0.0 0.0 0.06 1.00 1.00 91 1014.2
20220703205310 53 179 0.0 0.0 0.04 0.98 0.98 91 1014.3
20220703204810 53 113 0.0 0.0 0.04 0.97 0.97 91 1014.7
20220703204310 53 124 0.0 0.0 0.05 0.96 0.96 91 1014.6
20220703203810 53 158 0.0 0.0 0.06 0.96 0.96 91 1014.6
20220703203310 53 257 0.0 0.0 0.06 0.95 0.95 91 1014.6
20220703202810 53 135 0.0 0.0 0.07 0.95 0.95 91 1014.5
20220703202310 53 219 0.0 0.0 0.08 0.95 0.95 91 1014.4
20220703201810 53 179 0.0 0.0 0.09 0.95 0.95 91 1014.1
20220703201310 53 244 0.0 0.0 0.12 0.95 0.95 91 1014.0
20220703200810 53 178 0.0 0.0 0.16 0.95 0.95 91 1013.7
20220703200310 53 211 0.0 0.0 0.17 0.95 0.95 92 1013.6
20220703195810 54 211 0.0 0.0 0.16 0.94 0.94 93 1013.4
20220703195310 54 240 0.0 0.0 0.16 0.94 0.94 93 1013.9
20220703194810 54 198 0.0 0.0 0.15 0.93 0.93 93 1014.0
20220703194310 54 254 0.0 0.0 0.13 0.91 0.91 93 1013.7
20220703193810 54 163 0.0 0.0 0.12 0.90 0.90 93 1013.8
20220703193310 54 142 0.0 0.0 0.11 0.89 0.89 93 1013.7
20220703192810 54 252 0.0 0.0 0.10 0.88 0.88 93 1013.6
20220703192310 54 227 0.0 0.0 0.09 0.87 0.87 93 1013.4
20220703191810 54 144 0.0 0.0 0.08 0.86 0.86 92 1013.1
20220703191310 54 151 0.0 0.0 0.05 0.83 0.83 93 1013.2
20220703190810 54 103 0.0 0.0 0.01 0.79 0.79 93 1013.7
20220703190310 54 103 0.0 0.0 0.00 0.78 0.78 92 1013.4
20220703185810 54 102 0.0 0.0 0.00 0.78 0.78 92 1012.7
20220703185310 54 146 0.0 0.0 0.00 0.78 0.78 92 1012.6
20220703184810 54 141 0.0 0.0 0.00 0.78 0.78 91 1012.6
20220703184310 54 126 0.0 0.0 0.00 0.78 0.78 91 1012.4
20220703183810 54 146 0.0 0.0 0.00 0.78 0.78 91 1012.5
20220703183310 54 153 0.0 0.0 0.00 0.78 0.78 91 1012.5
20220703182810 54 244 0.0 0.0 0.00 0.78 0.78 91 1012.4
20220703182310 54 355 0.0 0.0 0.00 0.78 0.78 92 1012.5
20220703181810 54 211 0.0 0.0 0.01 0.78 0.78 92 1012.3
20220703181310 54 172 0.0 0.0 0.03 0.78 0.78 92 1012.3
20220703180810 54 213 0.0 0.0 0.03 0.78 0.78 92 1012.4
20220703180310 54 139 0.0 0.0 0.03 0.78 0.78 92 1012.5
20220703175810 54 145 0.0 0.0 0.03 0.83 0.78 92 1012.7
20220703175310 54 188 0.0 0.0 0.03 0.83 0.78 92 1012.9
20220703174810 54 205 0.0 0.0 0.03 0.83 0.78 92 1013.0
20220703174310 54 286 0.0 0.0 0.04 0.83 0.78 92 1013.1
20220703173810 54 185 0.0 0.0 0.05 0.83 0.78 92 1013.1
20220703173310 54 163 0.0 0.0 0.05 0.83 0.78 92 1013.1
20220703172810 54 170 0.0 0.0 0.07 0.83 0.78 92 1013.0
20220703172310 54 192 0.0 0.0 0.13 0.83 0.78 92 1013.0
20220703171810 54 138 0.0 0.0 0.12 0.82 0.77 93 1012.9
20220703171310 54 172 0.0 0.0 0.11 0.80 0.75 93 1013.2
20220703170810 54 69 0.0 0.0 0.12 0.80 0.75 92 1013.8
20220703170310 54 210 0.0 0.0 0.13 0.80 0.75 92 1013.7
20220703165810 54 214 0.0 0.0 0.13 0.83 0.75 92 1013.4
20220703165310 54 167 0.0 0.0 0.14 0.83 0.75 92 1013.4
20220703164810 54 190 0.0 0.0 0.15 0.83 0.75 93 1013.6
20220703164310 54 156 0.0 0.0 0.14 0.82 0.74 93 1013.9
20220703163810 54 175 0.0 0.0 0.13 0.81 0.73 93 1013.8
20220703163310 54 188 0.0 0.0 0.14 0.81 0.73 93 1013.9
20220703162810 54 215 0.0 0.0 0.13 0.79 0.71 93 1013.9
20220703162310 54 171 0.0 0.0 0.07 0.73 0.65 93 1013.6
20220703161810 54 304 0.0 0.0 0.07 0.73 0.65 93 1015.0
20220703161310 54 355 0.0 0.0 0.06 0.72 0.64 92 1013.9
20220703160810 54 215 0.0 0.0 0.07 0.71 0.63 93 1013.9
20220703160310 54 220 0.0 0.0 0.06 0.70 0.62 92 1014.0
20220703155810 54 55 0.0 0.0 0.07 0.74 0.62 92 1014.4
20220703155310 54 346 0.0 0.0 0.06 0.73 0.61 92 1014.2
20220703154810 54 355 0.0 0.0 0.05 0.72 0.60 92 1014.0
20220703154310 54 351 0.0 0.0 0.05 0.72 0.60 92 1014.1
20220703153810 54 269 0.0 0.0 0.05 0.72 0.60 92 1014.3
20220703153310 54 263 0.0 0.0 0.04 0.71 0.59 92 1014.5
20220703152810 55 221 0.0 0.0 0.03 0.70 0.58 92 1014.3
20220703152310 55 167 0.0 0.0 0.03 0.70 0.58 92 1014.1
20220703151810 55 179 0.0 0.0 0.05 0.70 0.58 92 1014.3
20220703151311 55 185 0.0 0.0 0.06 0.70 0.58 92 1014.4
20220703150810 55 190 0.0 0.0 0.04 0.68 0.56 92 1014.1
20220703150310 55 137 0.0 0.0 0.04 0.68 0.56 92 1014.6
20220703145810 55 72 0.0 0.0 0.04 0.73 0.55 92 1014.5
20220703145310 55 190 0.0 0.0 0.05 0.73 0.55 92 1014.4
20220703144810 55 207 0.0 0.0 0.06 0.73 0.55 93 1014.3
20220703144310 55 180 0.0 0.0 0.08 0.73 0.55 93 1014.1
20220703143810 55 76 0.0 0.0 0.11 0.73 0.55 93 1014.4
20220703143310 55 70 0.0 0.0 0.22 0.73 0.55 93 1014.7
20220703142810 55 129 0.0 0.0 0.24 0.73 0.55 93 1014.8
20220703142310 55 150 0.0 0.0 0.25 0.73 0.55 93 1014.9
20220703141810 55 263 0.0 0.0 0.23 0.71 0.53 93 1014.9
20220703141310 55 40 0.0 0.0 0.23 0.70 0.52 93 1014.9
20220703140810 55 40 0.0 0.0 0.25 0.70 0.52 93 1015.2
20220703140310 55 39 0.0 0.0 0.27 0.70 0.52 93 1015.0
20220703135810 55 78 0.0 0.0 0.28 0.82 0.51 93 1015.0
20220703135310 55 69 0.0 0.0 0.28 0.81 0.50 93 1014.9
20220703134810 55 78 0.0 0.0 0.28 0.80 0.49 93 1015.4
20220703134310 55 40 0.0 0.0 0.26 0.78 0.47 93 1015.3
20220703133811 55 105 0.0 0.0 0.22 0.74 0.43 92 1015.3
20220703133311 55 207 0.0 0.0 0.12 0.64 0.33 92 1016.0
20220703132811 55 317 0.0 0.0 0.10 0.62 0.31 92 1016.1
20220703132310 55 28 0.0 0.0 0.09 0.61 0.30 92 1014.1
20220703131811 55 323 0.0 0.0 0.09 0.61 0.30 92 1013.8
20220703131311 55 331 0.0 0.0 0.08 0.60 0.29 92 1013.6
20220703130811 56 176 0.0 0.0 0.07 0.58 0.27 92 1013.9
20220703130311 56 140 0.0 0.0 0.05 0.56 0.25 92 1014.2
20220703125811 56 230 0.0 0.0 0.04 0.55 0.23 92 1014.4
20220703125311 56 84 0.0 0.0 0.04 0.54 0.22 92 1014.6
20220703124811 56 94 0.0 0.0 0.03 0.53 0.21 92 1014.5
20220703124311 56 111 0.0 0.0 0.04 0.53 0.21 92 1014.5
20220703123811 56 64 0.0 0.0 0.04 0.53 0.21 92 1014.5
20220703123311 56 282 0.0 0.0 0.04 0.53 0.21 92 1014.3
20220703122811 56 192 0.0 0.0 0.04 0.53 0.21 92 1014.3
20220703122311 56 190 0.0 0.0 0.05 0.53 0.21 92 1014.2
20220703121811 56 213 0.0 0.0 0.05 0.53 0.21 92 1014.3
20220703121311 56 355 0.0 0.0 0.05 0.53 0.21 92 1014.2
20220703120811 56 319 0.0 0.0 0.04 0.52 0.20 92 1014.2
20220703120311 56 36 0.0 0.0 0.04 0.52 0.20 93 1014.4
20220703115811 56 237 0.0 0.0 0.03 0.57 0.19 93 1014.5
20220703115311 56 92 0.0 0.0 0.02 0.56 0.18 93 1014.5
20220703114811 56 152 0.0 0.0 0.02 0.56 0.18 93 1014.5
20220703114311 56 74 0.0 0.0 0.02 0.55 0.17 92 1014.5
20220703113811 56 74 0.0 0.0 0.02 0.55 0.17 92 1014.5
20220703113311 56 182 0.0 0.0 0.03 0.55 0.17 92 1014.5
20220703112811 56 202 0.0 0.0 0.03 0.55 0.17 92 1014.3
20220703112311 56 246 0.0 0.0 0.02 0.54 0.16 92 1014.2
20220703111811 56 247 0.0 0.0 0.02 0.54 0.16 92 1014.2
20220703111311 56 246 0.0 0.0 0.02 0.54 0.16 92 1014.2
20220703110811 56 69 0.0 0.0 0.02 0.54 0.16 92 1014.3
20220703110311 56 64 0.0 0.0 0.02 0.54 0.16 92 1014.2
20220703105811 56 62 0.0 0.0 0.02 0.82 0.16 92 1014.3
20220703105311 56 85 0.0 0.0 0.02 0.82 0.16 91 1014.4
20220703104811 56 148 0.0 0.0 0.02 0.82 0.16 91 1014.4
20220703104311 57 84 0.0 0.0 0.01 0.81 0.15 91 1014.6
20220703103811 57 69 0.0 0.0 0.01 0.81 0.15 91 1014.6
20220703103311 56 136 0.0 0.0 0.00 0.80 0.14 91 1014.7
20220703102811 56 142 0.0 0.0 0.01 0.80 0.14 91 1014.6
20220703102311 56 51 0.0 0.0 0.01 0.80 0.14 91 1014.4
20220703101811 56 234 0.0 0.0 0.01 0.80 0.14 91 1014.4
20220703101311 56 223 0.0 0.0 0.02 0.80 0.14 91 1014.3
20220703100811 56 223 0.0 0.0 0.03 0.80 0.14 91 1014.3
20220703100311 56 219 0.0 0.0 0.04 0.80 0.14 91 1014.4
20220703095811 56 227 0.0 0.0 0.04 0.80 0.14 91 1014.4
20220703095311 56 112 0.0 0.0 0.04 0.80 0.14 91 1014.4
20220703094811 56 77 0.0 0.0 0.04 0.80 0.14 91 1014.3
20220703094311 56 86 0.0 0.0 0.04 0.80 0.14 91 1014.4
20220703093811 56 194 0.0 0.0 0.04 0.80 0.14 91 1014.4
20220703093311 56 191 0.0 0.0 0.04 0.80 0.14 91 1014.4
20220703092811 56 238 0.0 0.0 0.03 0.79 0.13 92 1014.4
20220703092311 56 133 0.0 0.0 0.03 0.79 0.13 91 1014.2
20220703091811 56 106 0.0 0.0 0.03 0.79 0.13 92 1014.2
20220703091311 56 115 0.0 0.0 0.02 0.78 0.12 91 1014.3
20220703090811 56 152 0.0 0.0 0.01 0.77 0.11 91 1014.3
20220703090311 56 153 0.0 0.0 0.00 0.76 0.10 91 1014.1
20220703085811 56 149 0.0 0.0 0.00 0.76 0.10 91 1013.8
20220703085311 56 134 0.0 0.0 0.00 0.76 0.10 90 1013.7
20220703084811 56 198 0.0 0.0 0.00 0.76 0.10 90 1013.6
20220703084311 56 259 0.0 0.0 0.00 0.76 0.10 90 1013.5
20220703083811 56 142 0.0 0.0 0.00 0.76 0.10 90 1013.3
20220703083311 56 173 0.0 0.0 0.00 0.76 0.10 90 1013.2
20220703082811 57 246 0.0 0.0 0.00 0.76 0.10 90 1013.3
20220703082311 57 163 0.0 0.0 0.00 0.76 0.10 90 1013.3
20220703081811 57 196 0.0 0.0 0.01 0.76 0.10 90 1013.3
20220703081311 57 140 0.0 0.0 0.02 0.76 0.10 90 1013.2
20220703080811 57 242 0.0 0.0 0.02 0.76 0.10 90 1013.0
20220703080311 57 212 0.0 0.0 0.02 0.76 0.10 91 1012.9
20220703075811 57 90 0.0 0.0 0.02 0.76 0.10 91 1012.8
20220703075311 57 220 0.0 0.0 0.02 0.76 0.10 91 1012.9
20220703074811 57 144 0.0 0.0 0.02 0.76 0.10 91 1012.9
20220703074311 57 143 0.0 0.0 0.02 0.76 0.10 91 1012.9
20220703073811 57 178 0.0 0.0 0.02 0.76 0.10 91 1012.8
20220703073311 58 142 0.0 0.0 0.02 0.76 0.10 91 1013.0
20220703072811 58 209 0.0 0.0 0.02 0.76 0.10 91 1012.9
20220703072311 58 68 0.0 0.0 0.02 0.76 0.10 91 1012.9
20220703071811 58 172 0.0 0.0 0.01 0.75 0.09 91 1012.9
20220703071311 58 42 0.0 0.0 0.00 0.74 0.08 91 1012.9
20220703070811 58 199 0.0 0.0 0.00 0.74 0.08 90 1013.2
20220703070311 58 245 0.0 0.0 0.01 0.74 0.08 90 1012.6
20220703065811 58 190 0.0 0.0 0.02 0.76 0.08 91 1012.4
20220703065311 58 226 0.0 0.0 0.02 0.76 0.08 91 1012.4
20220703064811 58 164 0.0 0.0 0.02 0.76 0.08 91 1012.5
20220703064311 58 173 0.0 0.0 0.02 0.76 0.08 91 1012.6
20220703063811 58 148 0.0 0.0 0.02 0.76 0.08 91 1012.6
20220703063311 58 155 0.0 0.0 0.02 0.76 0.08 91 1012.5
20220703062811 58 147 0.0 0.0 0.02 0.76 0.08 91 1012.2
20220703062311 58 225 0.0 0.0 0.02 0.76 0.08 91 1012.2
20220703061916 58 130 0.0 0.0 0.02 0.76 0.08 91 1012.3
20220703061811 58 130 0.0 0.0 0.02 0.76 0.08 91 1012.3
20220703061311 58 95 0.0 0.0 0.02 0.76 0.08 91 1012.3
20220703060811 59 95 0.0 0.0 0.02 0.76 0.08 90 1012.2
20220703060311 59 95 0.0 0.0 0.01 0.75 0.07 90 1012.4
20220703055811 59 96 0.0 0.0 0.00 0.74 0.06 89 1012.4
20220703055311 59 130 0.0 0.0 0.00 0.74 0.06 90 1012.4
20220703054811 59 111 0.0 0.0 0.00 0.74 0.06 90 1012.5
20220703054311 60 166 0.0 0.0 0.00 0.74 0.06 90 1012.3
20220703053811 60 57 0.0 0.0 0.00 0.74 0.06 89 1012.3
20220703053311 60 119 0.0 0.0 0.00 0.74 0.06 90 1012.5
20220703052811 60 78 0.0 0.0 0.00 0.74 0.06 89 1012.4
20220703052311 60 167 0.0 0.0 0.00 0.74 0.06 89 1012.5
20220703051811 60 46 0.0 0.0 0.00 0.74 0.06 89 1012.4
20220703051311 60 217 0.0 0.0 0.00 0.74 0.06 89 1012.5
20220703050811 60 208 0.0 0.0 0.00 0.74 0.06 89 1012.4
20220703050311 60 171 0.0 0.0 0.00 0.74 0.06 88 1012.3
20220703045811 61 51 0.0 0.0 0.00 0.74 0.06 88 1012.1
20220703045312 61 69 0.0 0.0 0.00 0.74 0.06 88 1012.1
20220703044811 61 86 0.0 0.0 0.00 0.74 0.06 89 1012.0
20220703044312 62 192 0.0 0.0 0.00 0.74 0.06 89 1012.2
20220703043812 62 115 0.0 0.0 0.00 0.74 0.06 89 1012.0
20220703043312 63 88 0.0 0.0 0.00 0.74 0.06 88 1011.9
20220703042812 63 85 0.0 0.0 0.01 0.74 0.06 87 1012.1
20220703042312 63 87 0.0 0.0 0.01 0.74 0.06 88 1012.0
20220703041812 63 90 0.0 0.0 0.01 0.74 0.06 88 1012.4
20220703041312 63 81 0.0 0.0 0.01 0.74 0.06 87 1012.4
20220703040812 62 83 0.0 0.0 0.01 0.74 0.06 87 1012.2
20220703040312 62 123 0.0 0.0 0.01 0.74 0.06 87 1012.3
20220703035812 62 134 0.0 0.0 0.01 0.74 0.06 87 1012.2
20220703035312 62 173 0.0 0.0 0.01 0.74 0.06 88 1012.2
20220703034812 62 62 0.0 0.0 0.01 0.74 0.06 88 1012.1
20220703034312 62 186 0.0 0.0 0.01 0.74 0.06 89 1012.3
20220703033812 62 173 0.0 0.0 0.01 0.74 0.06 89 1012.4
20220703033312 62 169 0.0 0.0 0.01 0.74 0.06 89 1012.4
20220703032812 62 150 0.0 0.0 0.00 0.73 0.05 89 1012.5
20220703032312 62 209 0.0 0.0 0.00 0.73 0.05 89 1012.5
20220703031812 62 261 0.0 0.0 0.01 0.73 0.05 90 1012.5
20220703031312 62 200 0.0 0.0 0.01 0.73 0.05 90 1012.5
20220703030812 62 159 0.0 0.0 0.02 0.73 0.05 91 1012.5
20220703030312 62 192 0.0 0.0 0.03 0.73 0.05 91 1012.8
20220703025812 62 94 0.0 0.0 0.03 0.73 0.05 92 1012.9
20220703025312 61 103 0.0 0.0 0.03 0.73 0.05 92 1013.2
20220703024812 61 153 0.0 0.0 0.03 0.73 0.05 92 1013.2
20220703024312 61 131 0.0 0.0 0.03 0.73 0.05 92 1013.3
20220703023812 61 86 0.0 0.0 0.04 0.73 0.05 92 1013.2
20220703023312 61 149 0.0 0.0 0.04 0.73 0.05 92 1013.4
20220703022812 62 105 0.0 0.0 0.04 0.73 0.05 92 1013.4
20220703022312 61 115 0.0 0.0 0.04 0.73 0.05 92 1013.6
20220703021812 61 173 0.0 0.0 0.03 0.72 0.04 91 1014.0
20220703021312 61 190 0.0 0.0 0.03 0.72 0.04 91 1014.1
20220703020812 61 169 0.0 0.0 0.02 0.71 0.03 90 1013.9
20220703020312 62 154 0.0 0.0 0.01 0.70 0.02 91 1014.1
20220703015812 62 199 0.0 0.0 0.01 0.80 0.02 91 1014.2
20220703015312 62 210 0.0 0.0 0.01 0.80 0.02 91 1014.2
20220703014812 62 184 0.0 0.0 0.01 0.80 0.02 91 1014.2
20220703014312 62 107 0.0 0.0 0.02 0.80 0.02 91 1014.3
20220703013812 62 98 0.0 0.0 0.01 0.79 0.01 90 1014.3
20220703013312 62 84 0.0 0.0 0.01 0.79 0.01 90 1014.4
20220703012812 61 167 0.0 0.0 0.01 0.79 0.01 89 1014.6
20220703012312 62 169 0.0 0.0 0.01 0.79 0.01 89 1014.6
20220703011812 62 181 0.0 0.0 0.01 0.79 0.01 89 1014.6
20220703011312 62 210 0.0 0.0 0.01 0.79 0.01 89 1014.5
20220703010812 63 65 0.0 0.0 0.01 0.79 0.01 91 1014.3
20220703010312 62 188 0.0 0.0 0.01 0.79 0.01 90 1014.4
20220703005812 62 182 0.0 0.0 0.01 0.94 0.01 90 1014.6
20220703005312 62 206 0.0 0.0 0.01 0.94 0.01 89 1014.7
20220703004812 62 73 0.0 0.0 0.01 0.94 0.01 90 1014.6
20220703004312 62 88 0.0 0.0 0.00 0.93 0.00 90 1014.7